Carolina Beach, NC

9:27 AM EST on December 21, 2014 (GMT -0500)
Forest By The Sea | Change Station
CLOSE
Current Station
Personal Weather Station
Location: Carolina Beach, NC
Elevation: 10 ft
Nearby Weather Stations

Elev 10 ft 34.05 °N, 77.89 °W | Updated 11 minutes ago

Overcast
Overcast
41.6 °F
Feels Like 37 °F
N
7.0
Wind Variable Wind from SE
Gusts 12.0 mph

Today
High -- | Low -- °F
--% Chance of Precip.
Yesterday
High -- | Low -- °F
Precip. -- in
7:13 AM 5:06 PM
Waning Crescent, 0% visible
Pressure 30.27 in
Visibility 10.0 miles
Clouds Mostly Cloudy 10000 ft
Windchill 37 °F
Dew Point 37 °F
Humidity 85%
Rainfall 0.00 in
Snow Depth Not available.
UV 1 out of 12
Pollen .60 out of 12
Air Quality Not available.
Flu Activity Not available.
METAR KSUT 211415Z AUTO 01007KT 10SM BKN100 05/02 A3027 RMK AO2 T00500015

More Conditions Fewer Conditions

Pressure 30.27 in
Visibility 10.0 miles
Clouds Mostly Cloudy 10000 ft
Windchill 37 °F
Dew Point 37 °F
Humidity 85%
Rainfall 0.00 in
Snow Depth Not available.
UV 1 out of 12
Pollen .60 out of 12
Air Quality Not available.
Flu Activity Not available.
METAR KSUT 211415Z AUTO 01007KT 10SM BKN100 05/02 A3027 RMK AO2 T00500015

More Conditions Fewer Conditions

10-Day Weather Forecast

Almanac

Astronomy

Dec. 21, 2014 Rise Set
Actual Time
Civil Twilight
Nautical Twilight
Astronomical Twilight
Moon
Length of Visible Light
Length of Day
Tomorrow will be .
, % of the Moon is Illuminated

Today's Extremes

State Highs State Lows

Community

WunderPhotos

Upload Photos

1,779,392 photos uploaded!

WunderBlogs® & News

Nearby

Air Quality

  Air Quality AQ Index Pollutant
Not available.

Snow Depth

Station Depth Elevation

Earthquake Activity

City Distance Mag. Time & Date
Minimum magnitude displayed is 2.5.

Coastal Water Temperatures

Place Temperature

Nearby Weather Stations